Time;durP1;ratioP1;P1;durP2;ratioP2;P2;SDS_P1;SDS_P2;PMS_P1;PMS_P2;Temp;Humidity;BMP_temperature;BMP_pressure;BME280_temperature;BME280_humidity;BME280_pressure;Samples;Min_cycle;Max_cycle;Signal;HPM_P1;HPM_P2
2022/07/21 00:00:33;;;;;;;9.00;4.35;;;21.70;99.90;;;;;;4962252;28;20035;-53
2022/07/21 00:02:59;;;;;;;8.73;4.10;;;21.70;99.90;;;;;;4961815;28;20130;-53
2022/07/21 00:05:25;;;;;;;8.90;4.65;;;21.70;99.90;;;;;;4962348;28;20126;-53
2022/07/21 00:07:52;;;;;;;9.20;4.32;;;21.70;99.90;;;;;;4972342;28;20061;-53
2022/07/21 00:10:19;;;;;;;12.70;4.85;;;21.70;99.90;;;;;;4962233;28;20093;-50
2022/07/21 00:12:45;;;;;;;7.80;4.30;;;21.70;99.90;;;;;;4963185;28;20055;-52
2022/07/21 00:15:13;;;;;;;8.68;4.60;;;21.70;99.90;;;;;;4962698;28;20379;-53
2022/07/21 00:17:39;;;;;;;8.45;5.00;;;21.60;99.90;;;;;;4962067;28;20186;-54
2022/07/21 00:20:07;;;;;;;10.63;5.90;;;21.60;99.90;;;;;;4962923;28;20125;-52
2022/07/21 00:22:33;;;;;;;11.00;5.18;;;21.50;99.90;;;;;;4960663;28;20081;-53
2022/07/21 00:24:58;;;;;;;9.18;5.70;;;21.40;99.90;;;;;;4962407;28;20042;-52
2022/07/21 00:27:25;;;;;;;12.60;5.15;;;21.30;99.90;;;;;;4961514;28;20043;-53
2022/07/21 00:29:51;;;;;;;10.27;5.80;;;21.30;99.90;;;;;;4961054;28;20039;-52
2022/07/21 00:32:17;;;;;;;10.13;5.55;;;21.30;99.90;;;;;;4962208;28;20053;-57
2022/07/21 00:34:46;;;;;;;9.10;6.07;;;21.20;99.90;;;;;;4963066;28;20042;-53
2022/07/21 00:37:12;;;;;;;9.20;5.45;;;21.10;99.90;;;;;;4961915;28;20047;-52
2022/07/21 00:39:37;;;;;;;11.55;6.28;;;21.10;99.90;;;;;;4961949;28;20038;-54
2022/07/21 00:42:04;;;;;;;9.02;5.65;;;21.10;99.90;;;;;;4962545;28;20058;-52
2022/07/21 00:44:30;;;;;;;10.15;6.65;;;21.00;99.90;;;;;;4961304;28;20043;-53
2022/07/21 00:46:57;;;;;;;13.15;7.03;;;21.00;99.90;;;;;;4962445;28;20046;-55
2022/07/21 00:49:23;;;;;;;14.48;7.53;;;20.80;99.90;;;;;;4961926;28;20042;-54
2022/07/21 00:51:49;;;;;;;14.18;7.38;;;20.50;99.90;;;;;;4961681;28;20054;-53
2022/07/21 00:54:16;;;;;;;13.68;8.00;;;20.20;99.90;;;;;;4961821;28;20071;-53
2022/07/21 00:56:43;;;;;;;11.00;7.00;;;20.00;99.90;;;;;;4965887;28;20138;-54
2022/07/21 00:59:09;;;;;;;14.43;9.27;;;19.80;99.90;;;;;;4966194;28;20046;-52
2022/07/21 01:01:35;;;;;;;15.68;9.82;;;19.60;99.90;;;;;;4965896;28;20525;-53
2022/07/21 01:04:01;;;;;;;15.23;10.07;;;19.50;99.90;;;;;;4965531;28;20055;-54
2022/07/21 01:06:26;;;;;;;17.75;10.63;;;19.50;99.90;;;;;;4967923;28;20539;-52
2022/07/21 01:08:53;;;;;;;14.45;10.32;;;19.50;99.90;;;;;;4973643;28;20086;-52
2022/07/21 01:11:20;;;;;;;16.45;10.27;;;19.50;99.90;;;;;;4965414;28;20165;-53
2022/07/21 01:13:47;;;;;;;19.23;11.00;;;19.50;99.90;;;;;;4965373;28;20038;-53
2022/07/21 01:16:13;;;;;;;16.38;10.77;;;19.50;99.90;;;;;;4965834;28;20047;-54
2022/07/21 01:18:40;;;;;;;18.55;10.82;;;19.40;99.90;;;;;;4965668;28;20047;-54
2022/07/21 01:21:30;;;;;;;15.55;10.50;;;19.40;99.90;;;;;;4965538;28;20050;-53
2022/07/21 01:23:56;;;;;;;13.25;10.10;;;19.40;99.90;;;;;;4964920;28;20421;-53
2022/07/21 01:26:22;;;;;;;15.60;11.48;;;19.30;99.90;;;;;;4965590;28;20077;-53
2022/07/21 01:28:48;;;;;;;18.70;12.07;;;19.40;99.90;;;;;;4965094;28;20504;-54
2022/07/21 01:31:13;;;;;;;18.83;12.20;;;19.40;99.90;;;;;;4966119;28;20117;-52
2022/07/21 01:33:40;;;;;;;17.75;11.73;;;19.40;99.90;;;;;;4965398;28;20549;-52
2022/07/21 01:36:06;;;;;;;17.40;12.07;;;19.40;99.90;;;;;;4965298;28;20843;-50
2022/07/21 01:41:34;;;;;;;13.38;11.55;;;19.30;99.90;;;;;;4965064;28;20512;-53
2022/07/21 01:44:04;;;;;;;19.50;12.73;;;19.40;99.90;;;;;;4965541;28;20457;-51
2022/07/21 01:46:32;;;;;;;20.40;13.60;;;19.60;99.90;;;;;;4965312;28;20173;-52
2022/07/21 01:48:58;;;;;;;20.92;13.23;;;19.70;99.90;;;;;;4965336;28;20054;-52
2022/07/21 01:51:24;;;;;;;19.73;13.77;;;19.60;99.90;;;;;;4964099;28;20074;-52
2022/07/21 01:53:50;;;;;;;17.67;12.80;;;19.70;99.90;;;;;;4964622;28;20069;-52
2022/07/21 01:56:20;;;;;;;21.08;13.75;;;19.80;99.90;;;;;;4965235;28;20047;-56
2022/07/21 01:58:45;;;;;;;21.80;13.95;;;19.80;99.90;;;;;;4965430;28;20046;-54
2022/07/21 02:01:11;;;;;;;21.88;14.25;;;19.60;99.90;;;;;;4964606;28;20548;-52
2022/07/21 02:03:37;;;;;;;18.85;13.52;;;19.70;99.90;;;;;;4963499;28;20066;-52
2022/07/21 02:06:04;;;;;;;20.38;13.90;;;19.70;99.90;;;;;;4966424;28;20090;-53
2022/07/21 02:08:31;;;;;;;18.35;12.68;;;19.70;99.90;;;;;;4970739;28;20062;-52
2022/07/21 02:10:57;;;;;;;18.58;13.00;;;19.70;99.90;;;;;;4964992;28;20066;-51
2022/07/21 02:13:23;;;;;;;18.00;12.90;;;19.70;99.90;;;;;;4964357;28;20050;-52
2022/07/21 02:15:49;;;;;;;18.33;13.85;;;19.60;99.90;;;;;;4964541;28;20047;-54
2022/07/21 02:18:15;;;;;;;17.02;12.23;;;19.50;99.90;;;;;;4964575;28;20117;-51
2022/07/21 02:20:41;;;;;;;19.02;13.82;;;19.50;99.90;;;;;;4965122;28;20034;-53
2022/07/21 02:23:07;;;;;;;18.35;13.40;;;19.50;99.90;;;;;;4963988;28;20058;-54
2022/07/21 02:25:32;;;;;;;21.10;13.82;;;19.80;99.90;;;;;;4964283;28;20078;-52
2022/07/21 02:27:58;;;;;;;21.50;13.80;;;19.60;99.90;;;;;;4963943;28;20178;-52
2022/07/21 02:30:23;;;;;;;16.85;13.85;;;19.50;99.90;;;;;;4963998;28;20125;-52
2022/07/21 02:32:49;;;;;;;16.08;13.00;;;19.40;99.90;;;;;;4964636;28;20050;-53
2022/07/21 02:35:15;;;;;;;18.88;13.60;;;19.30;99.90;;;;;;4963140;28;20059;-53
2022/07/21 02:37:40;;;;;;;19.23;13.68;;;19.20;99.90;;;;;;4963246;28;20049;-51
2022/07/21 02:40:07;;;;;;;16.63;13.23;;;19.20;99.90;;;;;;4964050;28;20097;-54
2022/07/21 02:42:32;;;;;;;18.42;12.50;;;19.10;99.90;;;;;;4964123;28;20073;-52
2022/07/21 02:44:58;;;;;;;18.45;12.98;;;19.10;99.90;;;;;;4964318;28;20547;-52
2022/07/21 02:47:24;;;;;;;17.02;13.35;;;19.00;99.90;;;;;;4962838;28;20546;-53
2022/07/21 02:49:49;;;;;;;19.13;13.73;;;18.90;99.90;;;;;;4964533;28;20046;-51
2022/07/21 02:52:15;;;;;;;18.38;14.23;;;19.00;99.90;;;;;;4962210;28;20569;-52
2022/07/21 02:54:40;;;;;;;21.10;14.25;;;19.00;99.90;;;;;;4979139;28;20116;-53
2022/07/21 02:57:06;;;;;;;19.85;14.95;;;18.90;99.90;;;;;;4963659;28;20061;-53
2022/07/21 02:59:32;;;;;;;20.10;14.15;;;18.90;99.90;;;;;;4963871;28;20708;-53
2022/07/21 03:01:58;;;;;;;20.33;14.40;;;19.10;99.90;;;;;;4962246;28;20046;-51
2022/07/21 03:04:23;;;;;;;17.95;14.65;;;19.00;99.90;;;;;;4962445;28;20185;-53
2022/07/21 03:06:49;;;;;;;19.95;14.50;;;19.10;99.90;;;;;;4966290;28;20080;-53
2022/07/21 03:09:14;;;;;;;19.98;15.73;;;19.10;99.90;;;;;;4978877;28;20469;-51
2022/07/21 03:11:40;;;;;;;19.67;14.90;;;19.10;99.90;;;;;;4963477;28;20694;-52
2022/07/21 03:14:06;;;;;;;21.80;15.40;;;19.00;99.90;;;;;;4963483;28;20046;-51
2022/07/21 03:16:31;;;;;;;19.65;15.10;;;19.00;99.90;;;;;;4962827;28;20054;-53
2022/07/21 03:18:57;;;;;;;20.02;15.40;;;19.00;99.90;;;;;;4963058;28;20057;-52
2022/07/21 03:21:23;;;;;;;21.52;15.35;;;19.00;99.90;;;;;;4962348;28;20045;-52
2022/07/21 03:23:49;;;;;;;21.85;15.27;;;19.00;99.90;;;;;;4963863;28;20039;-53
2022/07/21 03:26:15;;;;;;;20.08;15.48;;;18.90;99.90;;;;;;4963055;28;20129;-52
2022/07/21 03:28:43;;;;;;;20.35;15.60;;;19.10;99.90;;;;;;4962618;28;20049;-55
2022/07/21 03:31:09;;;;;;;21.60;16.27;;;19.00;99.90;;;;;;4962301;28;20046;-52
2022/07/21 03:33:34;;;;;;;20.15;15.90;;;19.20;99.90;;;;;;4962991;28;20069;-53
2022/07/21 03:36:00;;;;;;;19.08;15.02;;;19.20;99.90;;;;;;4962819;28;20556;-52
2022/07/21 03:38:26;;;;;;;20.38;15.43;;;19.40;99.90;;;;;;4962120;28;20082;-53
2022/07/21 03:40:52;;;;;;;21.77;16.00;;;19.40;99.90;;;;;;4963153;28;20090;-52
2022/07/21 03:43:18;;;;;;;20.02;15.57;;;19.30;99.90;;;;;;4963008;28;20123;-52
2022/07/21 03:45:44;;;;;;;18.92;15.05;;;19.40;99.90;;;;;;4962717;28;20046;-53
2022/07/21 03:48:10;;;;;;;22.70;16.50;;;19.40;99.90;;;;;;4963030;28;20126;-54
2022/07/21 03:50:39;;;;;;;20.30;16.67;;;19.40;99.90;;;;;;4963101;28;20370;-54
2022/07/21 03:53:05;;;;;;;19.58;16.55;;;19.20;99.90;;;;;;4960784;28;20047;-53
2022/07/21 03:55:31;;;;;;;23.60;17.33;;;19.10;99.90;;;;;;4962414;28;20062;-53
2022/07/21 03:57:59;;;;;;;22.23;16.35;;;19.10;99.90;;;;;;4963006;28;20050;-53
2022/07/21 04:00:44;;;;;;;21.73;17.13;;;19.10;99.90;;;;;;4962874;28;20042;-54
2022/07/21 04:03:11;;;;;;;21.55;16.88;;;19.10;99.90;;;;;;4963106;28;20137;-53
2022/07/21 04:05:38;;;;;;;22.30;17.05;;;19.00;99.90;;;;;;4961749;28;20050;-52
2022/07/21 04:08:05;;;;;;;22.17;17.50;;;19.00;99.90;;;;;;4978496;28;20054;-52
2022/07/21 04:10:33;;;;;;;22.17;17.40;;;19.00;99.90;;;;;;4980810;28;20062;-51
2022/07/21 04:13:03;;;;;;;24.70;17.88;;;19.00;99.90;;;;;;4981897;28;20054;-52
2022/07/21 04:15:29;;;;;;;19.58;16.60;;;19.00;99.90;;;;;;4981721;28;20042;-50
2022/07/21 04:17:55;;;;;;;21.40;16.73;;;19.00;99.90;;;;;;4981411;28;20936;-51
2022/07/21 04:20:21;;;;;;;22.25;16.88;;;19.00;99.90;;;;;;4981534;28;20058;-54
2022/07/21 04:22:48;;;;;;;23.63;18.20;;;18.80;99.90;;;;;;4981677;28;20049;-52
2022/07/21 04:25:14;;;;;;;22.20;17.80;;;18.90;99.90;;;;;;4981618;28;20516;-53
2022/07/21 04:27:41;;;;;;;23.00;18.35;;;18.80;99.90;;;;;;4981499;28;20050;-52
2022/07/21 04:30:09;;;;;;;23.55;18.05;;;18.90;99.90;;;;;;4981420;28;20409;-54
2022/07/21 04:32:34;;;;;;;22.50;18.05;;;18.80;99.90;;;;;;4981788;28;20453;-53
2022/07/21 04:35:00;;;;;;;23.88;18.35;;;18.90;99.90;;;;;;4981721;28;20042;-50
2022/07/21 04:37:27;;;;;;;22.20;18.25;;;18.90;99.90;;;;;;4980030;28;20823;-53
2022/07/21 04:39:52;;;;;;;23.10;18.48;;;18.90;99.90;;;;;;4981506;28;20133;-52
2022/07/21 04:42:18;;;;;;;22.30;18.48;;;18.80;99.90;;;;;;4981431;28;20125;-54
2022/07/21 04:44:43;;;;;;;27.13;18.25;;;18.80;99.90;;;;;;4981059;28;20085;-52
2022/07/21 04:47:09;;;;;;;23.17;18.25;;;18.80;99.90;;;;;;4980730;28;20133;-49
2022/07/21 04:49:35;;;;;;;25.15;19.25;;;18.80;99.90;;;;;;4981611;28;20153;-51
2022/07/21 04:52:00;;;;;;;25.75;18.58;;;18.80;99.90;;;;;;4981471;28;20073;-52
2022/07/21 04:54:26;;;;;;;25.33;18.88;;;18.80;99.90;;;;;;4981025;28;20046;-53
2022/07/21 04:56:52;;;;;;;22.58;17.90;;;18.70;99.90;;;;;;4981590;28;20050;-53
2022/07/21 04:59:17;;;;;;;24.92;17.70;;;18.70;99.90;;;;;;4979919;28;20061;-54
2022/07/21 05:01:43;;;;;;;25.35;18.65;;;18.80;99.90;;;;;;4980800;28;20038;-50
2022/07/21 05:04:09;;;;;;;23.05;19.88;;;18.70;99.90;;;;;;4981635;28;20046;-50
2022/07/21 05:06:34;;;;;;;23.17;19.85;;;18.80;99.90;;;;;;4974075;28;20061;-51
2022/07/21 05:09:00;;;;;;;24.70;18.33;;;18.80;99.90;;;;;;4970616;28;20054;-52
2022/07/21 05:11:26;;;;;;;25.35;19.60;;;18.80;99.90;;;;;;4961492;28;20039;-51
2022/07/21 05:13:51;;;;;;;25.52;18.95;;;18.80;99.90;;;;;;4961904;28;20438;-53
2022/07/21 05:16:17;;;;;;;25.58;19.45;;;18.80;99.90;;;;;;4961555;28;20058;-53
2022/07/21 05:18:43;;;;;;;24.60;19.02;;;18.80;99.90;;;;;;4962255;28;20035;-52
2022/07/21 05:21:09;;;;;;;27.50;20.38;;;18.80;99.90;;;;;;4961204;28;20046;-55
2022/07/21 05:23:34;;;;;;;22.92;18.65;;;18.80;99.90;;;;;;4961140;28;20049;-50
2022/07/21 05:26:00;;;;;;;26.17;21.10;;;18.80;99.90;;;;;;4961427;28;20542;-52
2022/07/21 05:28:29;;;;;;;24.50;19.58;;;18.80;99.90;;;;;;4961680;28;20051;-52
2022/07/21 05:30:55;;;;;;;23.08;18.00;;;18.90;99.90;;;;;;4962000;28;20081;-52
2022/07/21 05:33:21;;;;;;;27.08;20.67;;;18.90;99.90;;;;;;4960910;28;20074;-52
2022/07/21 05:35:46;;;;;;;25.98;21.73;;;18.90;99.90;;;;;;4961987;28;20398;-52
2022/07/21 05:38:12;;;;;;;27.23;22.35;;;19.00;99.90;;;;;;4960794;28;20035;-52
2022/07/21 05:40:38;;;;;;;26.15;21.35;;;19.00;99.90;;;;;;4961664;28;20046;-52
2022/07/21 05:43:04;;;;;;;27.15;20.80;;;19.00;99.90;;;;;;4964890;28;20517;-53
2022/07/21 05:45:29;;;;;;;32.78;23.77;;;19.00;99.90;;;;;;4964766;28;20046;-52
2022/07/21 05:47:55;;;;;;;27.00;23.02;;;19.00;99.90;;;;;;4963789;28;20054;-52
2022/07/21 05:50:20;;;;;;;28.48;23.67;;;19.00;99.90;;;;;;4964870;28;20103;-51
2022/07/21 05:52:46;;;;;;;30.25;23.65;;;19.00;99.90;;;;;;4963803;28;20130;-51
2022/07/21 05:55:12;;;;;;;30.95;25.20;;;19.10;99.90;;;;;;4964055;28;20049;-54
2022/07/21 05:57:38;;;;;;;30.30;24.45;;;19.20;99.90;;;;;;4965037;28;20043;-53
2022/07/21 06:00:05;;;;;;;32.80;24.95;;;19.10;99.90;;;;;;4964880;28;20086;-50
2022/07/21 06:02:31;;;;;;;31.08;25.27;;;19.20;99.90;;;;;;4963028;28;20815;-53
2022/07/21 06:04:57;;;;;;;32.13;25.35;;;19.30;99.90;;;;;;4963973;28;20055;-54
2022/07/21 06:07:23;;;;;;;31.77;26.00;;;19.30;99.90;;;;;;4972085;28;20065;-53
2022/07/21 06:09:49;;;;;;;32.20;25.42;;;19.20;99.90;;;;;;4967290;28;20066;-52
2022/07/21 06:12:14;;;;;;;33.53;26.50;;;19.20;99.90;;;;;;4964561;28;20051;-52
2022/07/21 06:14:40;;;;;;;34.08;27.00;;;19.20;99.90;;;;;;4964517;28;20035;-53
2022/07/21 06:17:06;;;;;;;31.95;25.80;;;19.30;99.90;;;;;;4964767;28;20073;-50
2022/07/21 06:19:32;;;;;;;32.90;26.63;;;19.30;99.90;;;;;;4964450;28;20070;-51
2022/07/21 06:21:57;;;;;;;32.53;26.70;;;19.20;99.90;;;;;;4963380;28;20050;-52
2022/07/21 06:24:23;;;;;;;31.52;26.40;;;19.20;99.90;;;;;;4964404;28;20043;-53
2022/07/21 06:26:49;;;;;;;34.90;28.40;;;19.30;99.90;;;;;;4964320;28;20133;-54
2022/07/21 06:29:15;;;;;;;32.15;27.23;;;19.30;99.90;;;;;;4964796;28;20137;-52
2022/07/21 06:31:40;;;;;;;31.73;27.00;;;19.40;99.90;;;;;;4963918;28;20151;-52
2022/07/21 06:34:06;;;;;;;32.70;26.77;;;19.50;99.90;;;;;;4964233;28;20406;-53
2022/07/21 06:36:32;;;;;;;29.70;26.02;;;19.40;99.90;;;;;;4963553;28;20057;-53
2022/07/21 06:38:58;;;;;;;34.65;27.67;;;19.50;99.90;;;;;;4964359;28;20039;-53
2022/07/21 06:41:24;;;;;;;27.20;22.67;;;19.60;99.90;;;;;;4963313;28;20046;-54
2022/07/21 06:43:49;;;;;;;31.38;24.33;;;19.50;99.90;;;;;;4964564;28;20527;-52
2022/07/21 06:46:15;;;;;;;29.60;24.17;;;19.50;99.90;;;;;;4964016;28;20353;-53
2022/07/21 06:48:41;;;;;;;28.40;24.42;;;19.50;99.90;;;;;;4964363;28;20082;-52
2022/07/21 06:51:06;;;;;;;29.23;24.80;;;19.40;99.90;;;;;;4963112;28;20058;-53
2022/07/21 06:53:32;;;;;;;28.52;25.33;;;19.40;99.90;;;;;;4963068;28;20050;-51
2022/07/21 06:55:58;;;;;;;28.35;25.13;;;19.50;99.90;;;;;;4963989;28;20047;-53
2022/07/21 06:58:24;;;;;;;27.38;22.85;;;19.50;99.90;;;;;;4961849;28;20149;-53
2022/07/21 07:00:51;;;;;;;24.60;21.67;;;19.40;99.90;;;;;;4963888;28;20034;-52
2022/07/21 07:03:18;;;;;;;26.98;20.65;;;19.40;99.90;;;;;;4962127;28;20053;-50
2022/07/21 07:05:46;;;;;;;28.35;23.85;;;19.40;99.90;;;;;;4964419;28;20043;-54
2022/07/21 07:08:12;;;;;;;27.45;22.88;;;19.40;99.90;;;;;;4974112;28;20061;-53
2022/07/21 07:10:42;;;;;;;29.88;25.48;;;19.40;99.90;;;;;;4963701;28;20047;-57
2022/07/21 07:13:08;;;;;;;30.38;25.13;;;19.40;99.90;;;;;;4978510;28;20109;-57
2022/07/21 07:15:34;;;;;;;30.73;26.35;;;19.40;99.90;;;;;;4963425;28;20070;-57
2022/07/21 07:18:00;;;;;;;29.85;25.83;;;19.40;99.90;;;;;;4963131;28;20078;-58
2022/07/21 07:20:26;;;;;;;31.75;27.02;;;19.50;99.90;;;;;;4963417;28;20953;-57
2022/07/21 07:22:51;;;;;;;30.30;25.75;;;19.60;99.90;;;;;;4962830;28;20513;-57
2022/07/21 07:25:17;;;;;;;29.83;26.55;;;19.60;99.90;;;;;;4963128;28;20042;-56
2022/07/21 07:27:48;;;;;;;30.35;26.88;;;19.20;99.90;;;;;;4963118;28;20086;-50
2022/07/21 07:30:15;;;;;;;32.53;27.08;;;19.40;99.90;;;;;;4963251;28;20049;-52
2022/07/21 07:32:41;;;;;;;30.38;25.15;;;19.30;99.90;;;;;;4963352;28;20062;-51
2022/07/21 07:35:11;;;;;;;31.58;27.98;;;19.40;99.90;;;;;;4977308;28;20039;-54
2022/07/21 07:37:38;;;;;;;31.83;28.50;;;19.30;99.90;;;;;;4962168;28;20047;-50
2022/07/21 07:40:11;;;;;;;29.88;25.55;;;19.30;99.90;;;;;;4962923;28;20073;-57
2022/07/21 07:42:37;;;;;;;31.92;26.63;;;19.20;99.90;;;;;;4962623;28;20047;-51
2022/07/21 07:45:05;;;;;;;32.72;29.27;;;19.10;99.90;;;;;;4962662;28;20042;-51
2022/07/21 07:47:31;;;;;;;30.38;26.67;;;19.20;99.90;;;;;;4962868;28;20062;-52
2022/07/21 07:49:57;;;;;;;32.78;28.73;;;19.20;99.90;;;;;;4962993;28;20389;-51
2022/07/21 07:52:23;;;;;;;30.75;27.40;;;19.20;99.90;;;;;;4961513;28;20049;-52
2022/07/21 07:54:48;;;;;;;38.30;28.23;;;19.20;99.90;;;;;;4963050;28;20039;-53
2022/07/21 07:57:14;;;;;;;29.95;26.75;;;19.20;99.90;;;;;;4962796;28;20053;-53
2022/07/21 07:59:40;;;;;;;30.15;27.08;;;19.20;99.90;;;;;;4962380;28;20104;-49
2022/07/21 08:02:05;;;;;;;32.33;28.60;;;19.20;99.90;;;;;;4962203;28;20043;-51
2022/07/21 08:04:32;;;;;;;32.45;29.15;;;19.30;99.90;;;;;;4962318;28;20090;-50
2022/07/21 08:06:57;;;;;;;31.35;28.02;;;19.20;99.90;;;;;;4966975;28;20064;-52
2022/07/21 08:09:23;;;;;;;27.95;23.42;;;19.30;99.90;;;;;;4967728;28;20549;-52
2022/07/21 08:11:50;;;;;;;31.92;28.35;;;19.20;99.90;;;;;;4962072;28;20514;-50
2022/07/21 08:14:16;;;;;;;31.48;28.02;;;19.30;99.90;;;;;;4962226;28;20126;-49
2022/07/21 08:16:42;;;;;;;30.83;27.42;;;19.30;99.90;;;;;;4962689;28;20096;-50
2022/07/21 08:19:09;;;;;;;30.88;27.40;;;19.30;99.90;;;;;;4962823;28;20042;-52
2022/07/21 08:21:35;;;;;;;31.23;27.95;;;19.40;99.90;;;;;;4960855;28;20074;-49
2022/07/21 08:24:01;;;;;;;29.20;26.23;;;19.60;99.90;;;;;;4961951;28;20046;-51
2022/07/21 08:26:27;;;;;;;29.83;26.60;;;19.60;99.90;;;;;;4977077;28;20426;-51
2022/07/21 08:28:56;;;;;;;29.90;26.20;;;19.70;99.90;;;;;;4962252;28;20039;-46
2022/07/21 08:31:23;;;;;;;28.27;25.27;;;19.80;99.90;;;;;;4960677;28;20057;-52
2022/07/21 08:33:50;;;;;;;28.40;25.33;;;19.90;99.90;;;;;;4962403;28;20278;-52
2022/07/21 08:36:16;;;;;;;26.83;23.92;;;20.10;99.90;;;;;;4961952;28;20558;-55
2022/07/21 08:38:42;;;;;;;23.20;19.95;;;20.20;99.90;;;;;;4961925;28;20039;-52
2022/07/21 08:41:08;;;;;;;27.48;24.65;;;20.40;99.90;;;;;;4961936;28;20054;-51
2022/07/21 08:43:34;;;;;;;25.27;22.73;;;20.70;99.90;;;;;;4961910;28;20039;-48
2022/07/21 08:46:00;;;;;;;20.20;16.17;;;21.00;99.90;;;;;;4962099;28;20751;-52
2022/07/21 08:48:26;;;;;;;22.15;19.58;;;20.50;99.90;;;;;;4943988;28;20109;-50
2022/07/21 08:50:52;;;;;;;23.52;20.90;;;20.60;99.90;;;;;;4976297;28;20050;-50
2022/07/21 08:53:18;;;;;;;22.85;20.45;;;20.70;99.90;;;;;;4961652;28;20035;-50
2022/07/21 08:55:44;;;;;;;22.40;20.20;;;20.90;99.90;;;;;;4962841;28;20054;-49
2022/07/21 08:58:11;;;;;;;23.92;21.02;;;21.00;99.90;;;;;;4961367;28;20204;-52
2022/07/21 09:00:45;;;;;;;24.15;21.65;;;21.10;99.90;;;;;;4962344;28;20051;-49
2022/07/21 09:03:23;;;;;;;24.75;22.25;;;21.30;99.90;;;;;;4962071;28;20394;-47
2022/07/21 09:06:06;;;;;;;23.98;21.58;;;21.30;99.90;;;;;;4961656;28;20045;-51
2022/07/21 09:08:35;;;;;;;23.33;20.92;;;21.50;99.90;;;;;;4968315;28;20061;-50
2022/07/21 09:11:08;;;;;;;23.88;21.40;;;21.50;99.90;;;;;;4981371;28;20053;-51
2022/07/21 09:13:34;;;;;;;23.33;21.13;;;21.80;99.90;;;;;;4981357;28;20054;-47
2022/07/21 09:16:00;;;;;;;21.80;19.55;;;21.90;99.90;;;;;;4981749;28;20049;-52
2022/07/21 09:18:25;;;;;;;20.35;18.30;;;22.00;99.90;;;;;;4985004;28;20065;-49
2022/07/21 09:20:54;;;;;;;20.10;18.10;;;21.80;99.90;;;;;;4984018;28;20066;-49
2022/07/21 09:23:22;;;;;;;19.08;17.00;;;21.40;99.90;;;;;;4983385;28;20049;-52
2022/07/21 09:25:54;;;;;;;20.75;18.60;;;21.80;99.90;;;;;;4985240;28;20046;-53
2022/07/21 09:28:22;;;;;;;19.40;15.93;;;21.90;99.90;;;;;;4984004;28;20046;-48
2022/07/21 09:31:07;;;;;;;18.55;16.70;;;21.70;99.90;;;;;;4985112;28;20046;-51
2022/07/21 09:33:42;;;;;;;19.80;17.70;;;21.70;99.90;;;;;;4984570;28;20057;-51
2022/07/21 09:36:19;;;;;;;21.48;18.70;;;21.80;99.90;;;;;;4984029;28;20547;-60
2022/07/21 09:38:51;;;;;;;18.90;16.95;;;22.00;99.90;;;;;;4985481;28;20092;-66
2022/07/21 09:41:19;;;;;;;18.40;16.45;;;22.20;99.90;;;;;;4983942;28;20074;-54
2022/07/21 09:43:53;;;;;;;19.42;17.40;;;22.10;99.90;;;;;;4985149;28;20035;-49
2022/07/21 09:46:21;;;;;;;19.98;17.73;;;22.20;99.90;;;;;;4984495;28;20051;-57
2022/07/21 09:48:49;;;;;;;18.88;16.58;;;22.10;99.90;;;;;;4984248;28;20379;-47
2022/07/21 09:51:23;;;;;;;18.15;16.33;;;22.20;99.90;;;;;;4984399;28;20057;-46
2022/07/21 09:53:55;;;;;;;16.92;15.13;;;22.10;99.90;;;;;;4984034;28;20050;-46
2022/07/21 09:56:22;;;;;;;18.20;15.32;;;22.10;99.90;;;;;;4983086;28;20125;-45
2022/07/21 09:58:49;;;;;;;19.40;17.40;;;21.90;99.90;;;;;;4984471;28;20575;-45
2022/07/21 10:01:15;;;;;;;17.50;15.63;;;21.90;99.90;;;;;;4984411;28;20058;-52
2022/07/21 10:03:46;;;;;;;18.85;16.88;;;22.10;99.90;;;;;;4984544;28;20050;-44
2022/07/21 10:06:14;;;;;;;19.20;17.30;;;22.00;99.90;;;;;;4980407;28;20112;-45
2022/07/21 10:08:40;;;;;;;19.85;17.85;;;22.20;99.90;;;;;;4973324;28;20094;-59
2022/07/21 10:11:07;;;;;;;19.02;16.90;;;22.20;99.90;;;;;;4964812;28;20055;-53
2022/07/21 10:13:33;;;;;;;20.05;17.98;;;22.00;99.90;;;;;;4964426;28;20039;-58
2022/07/21 10:16:00;;;;;;;20.83;16.98;;;22.10;99.90;;;;;;4965043;28;20057;-59
2022/07/21 10:18:28;;;;;;;19.08;17.08;;;22.10;99.90;;;;;;4964301;28;20038;-59
2022/07/21 10:21:01;;;;;;;19.25;17.25;;;22.20;99.90;;;;;;4963940;28;20267;-59
2022/07/21 10:23:43;;;;;;;20.37;17.93;;;21.90;99.90;;;;;;4962548;28;20520;-59
2022/07/21 10:26:10;;;;;;;19.75;17.65;;;21.50;99.90;;;;;;4964631;28;20442;-55
2022/07/21 10:28:37;;;;;;;24.33;21.83;;;21.50;99.90;;;;;;4962940;28;20055;-56
2022/07/21 10:31:17;;;;;;;20.15;18.10;;;21.40;99.90;;;;;;4963997;28;20047;-56
2022/07/21 10:33:46;;;;;;;20.40;18.30;;;21.40;99.90;;;;;;4964730;28;20049;-55
2022/07/21 10:36:33;;;;;;;21.17;19.10;;;21.50;99.90;;;;;;4963429;28;20062;-55
2022/07/21 10:39:16;;;;;;;19.77;17.33;;;21.40;99.90;;;;;;4963285;28;20050;-56
2022/07/21 10:41:48;;;;;;;22.92;20.33;;;21.40;99.90;;;;;;4964171;28;20055;-56
2022/07/21 10:44:40;;;;;;;22.67;20.38;;;21.40;99.90;;;;;;4964731;28;20521;-56
2022/07/21 10:47:11;;;;;;;21.73;19.55;;;21.50;99.90;;;;;;4962090;28;20089;-56
2022/07/21 10:49:57;;;;;;;23.08;20.55;;;21.50;99.90;;;;;;4964365;28;20082;-56
2022/07/21 10:52:35;;;;;;;23.17;20.63;;;21.50;99.90;;;;;;4977723;28;20082;-56
2022/07/21 10:55:12;;;;;;;24.08;21.50;;;21.50;99.90;;;;;;4964219;28;20138;-56
2022/07/21 10:57:40;;;;;;;21.17;18.25;;;21.50;99.90;;;;;;4962425;28;20122;-56
2022/07/21 11:00:21;;;;;;;22.17;19.75;;;21.40;99.90;;;;;;4964488;28;20125;-55
2022/07/21 11:02:49;;;;;;;21.85;19.42;;;21.50;99.90;;;;;;4964623;28;20043;-55
2022/07/21 11:05:15;;;;;;;20.48;18.27;;;21.40;99.90;;;;;;4962517;28;20061;-56
2022/07/21 11:08:15;;;;;;;20.67;18.48;;;21.50;99.90;;;;;;4974632;28;20133;-57
2022/07/21 11:10:44;;;;;;;20.00;18.02;;;21.40;99.90;;;;;;4963497;28;20230;-56
2022/07/21 11:13:10;;;;;;;20.50;18.30;;;21.50;99.90;;;;;;4963307;28;20042;-57
2022/07/21 11:15:48;;;;;;;21.40;18.75;;;21.50;99.90;;;;;;4963672;28;20055;-55
2022/07/21 11:18:18;;;;;;;21.85;19.65;;;21.50;99.90;;;;;;4963291;28;20043;-56
2022/07/21 11:20:59;;;;;;;20.05;17.95;;;21.60;99.90;;;;;;4963632;28;20058;-56
2022/07/21 11:23:35;;;;;;;21.65;19.35;;;21.60;99.90;;;;;;4963001;28;20054;-56
2022/07/21 11:26:01;;;;;;;22.73;19.90;;;21.50;99.90;;;;;;4963418;28;20055;-56
2022/07/21 11:28:27;;;;;;;21.67;19.38;;;21.60;99.90;;;;;;4963460;28;20158;-56
2022/07/21 11:31:11;;;;;;;20.40;16.42;;;21.50;99.90;;;;;;4963474;28;20055;-56
2022/07/21 11:33:42;;;;;;;22.52;17.92;;;21.60;99.90;;;;;;4963587;28;20078;-56
2022/07/21 11:36:08;;;;;;;25.83;23.13;;;21.30;99.90;;;;;;4977755;28;20054;-56
2022/07/21 11:38:34;;;;;;;26.95;24.15;;;20.90;99.90;;;;;;4962073;28;20430;-56
2022/07/21 11:41:33;;;;;;;27.23;24.40;;;20.90;99.90;;;;;;4961786;28;20051;-55
2022/07/21 11:43:59;;;;;;;32.28;28.77;;;20.60;99.90;;;;;;4950634;28;20185;-55
2022/07/21 11:46:25;;;;;;;33.00;29.40;;;20.40;99.90;;;;;;4977632;28;20553;-55
2022/07/21 11:49:04;;;;;;;34.67;29.15;;;20.20;99.90;;;;;;4963411;28;20718;-56
2022/07/21 11:51:30;;;;;;;36.90;30.20;;;20.20;99.90;;;;;;4961522;28;20058;-56
2022/07/21 11:53:56;;;;;;;34.35;28.42;;;20.20;99.90;;;;;;4963021;28;20073;-56
2022/07/21 11:56:21;;;;;;;35.75;31.35;;;20.40;99.90;;;;;;4962756;28;20061;-56
2022/07/21 11:58:49;;;;;;;34.85;30.75;;;20.40;99.90;;;;;;4962919;28;20045;-56
2022/07/21 12:01:14;;;;;;;41.35;33.80;;;20.40;99.90;;;;;;4962268;28;20097;-55
2022/07/21 12:03:48;;;;;;;40.92;33.72;;;20.50;99.90;;;;;;4962637;28;20095;-56
2022/07/21 12:06:14;;;;;;;41.43;33.50;;;20.70;99.90;;;;;;4964535;28;20096;-69
2022/07/21 12:08:41;;;;;;;41.63;33.72;;;20.80;99.90;;;;;;4970388;28;20318;-55
2022/07/21 12:11:08;;;;;;;43.00;35.08;;;21.00;99.90;;;;;;4962769;28;20042;-57
2022/07/21 12:13:58;;;;;;;44.22;35.03;;;21.20;99.90;;;;;;4962616;28;20035;-54
2022/07/21 12:16:24;;;;;;;42.10;34.05;;;21.10;99.90;;;;;;4962402;28;20047;-55
2022/07/21 12:19:09;;;;;;;41.40;34.25;;;21.20;99.90;;;;;;4961725;28;20466;-55
2022/07/21 12:21:45;;;;;;;42.78;35.00;;;21.30;99.90;;;;;;4961311;28;20387;-56
2022/07/21 12:24:11;;;;;;;43.67;35.65;;;21.40;99.90;;;;;;4962490;28;20047;-56
2022/07/21 12:26:37;;;;;;;38.58;33.50;;;21.50;99.90;;;;;;4962739;28;20053;-56
2022/07/21 12:29:03;;;;;;;39.10;32.55;;;21.60;99.90;;;;;;4962358;28;20043;-55
2022/07/21 12:31:33;;;;;;;34.65;29.90;;;21.70;99.90;;;;;;4961718;28;20093;-55
2022/07/21 12:34:10;;;;;;;36.80;30.90;;;21.80;99.90;;;;;;4962652;28;20445;-53